Time;durP1;ratioP1;P1;durP2;ratioP2;P2;SDS_P1;SDS_P2;PMS_P1;PMS_P2;Temp;Humidity;BMP_temperature;BMP_pressure;BME280_temperature;BME280_humidity;BME280_pressure;Samples;Min_cycle;Max_cycle;Signal;HPM_P1;HPM_P2
2024/01/21 00:01:29;;;;;;;17.20;9.57;;;;;;;-5.11;100.00;99350.06;5071447;28;20608;-78
2024/01/21 00:03:57;;;;;;;22.50;10.40;;;;;;;-5.03;100.00;99344.97;5072279;28;20214;-78
2024/01/21 00:06:24;;;;;;;21.83;11.60;;;;;;;-5.12;100.00;99352.63;5074209;28;20205;-78
2024/01/21 00:08:50;;;;;;;17.97;10.20;;;;;;;-5.10;100.00;99356.06;5075013;28;20215;-77
2024/01/21 00:11:17;;;;;;;19.90;11.20;;;;;;;-5.04;100.00;99350.97;5074996;28;20673;-78
2024/01/21 00:13:43;;;;;;;22.93;11.73;;;;;;;-4.97;100.00;99347.63;5074438;28;20223;-77
2024/01/21 00:16:12;;;;;;;25.50;12.33;;;;;;;-4.90;100.00;99345.13;5074030;28;20229;-77
2024/01/21 00:18:42;;;;;;;22.07;12.07;;;;;;;-4.81;100.00;99346.94;5073592;28;20220;-77
2024/01/21 00:21:11;;;;;;;18.63;10.67;;;;;;;-4.72;100.00;99352.16;5074281;28;20656;-78
2024/01/21 00:23:37;;;;;;;20.40;11.13;;;;;;;-4.67;100.00;99350.50;5074561;28;20576;-77
2024/01/21 00:26:04;;;;;;;18.90;11.80;;;;;;;-4.64;100.00;99345.41;5073781;28;20201;-79
2024/01/21 00:28:32;;;;;;;20.50;11.43;;;;;;;-4.69;100.00;99347.06;5074213;28;20215;-77
2024/01/21 00:31:05;;;;;;;23.87;12.20;;;;;;;-4.75;100.00;99341.84;5074108;28;20232;-77
2024/01/21 00:33:31;;;;;;;22.80;12.20;;;;;;;-4.83;100.00;99338.34;5077070;28;20212;-78
2024/01/21 00:35:58;;;;;;;23.10;11.47;;;;;;;-4.95;100.00;99328.75;5075357;28;20284;-77
2024/01/21 00:38:26;;;;;;;19.60;11.80;;;;;;;-4.96;100.00;99326.19;5073862;28;20205;-77
2024/01/21 00:40:52;;;;;;;21.23;12.37;;;;;;;-4.92;100.00;99327.91;5073941;28;20220;-77
2024/01/21 00:43:19;;;;;;;24.43;12.40;;;;;;;-4.95;100.00;99327.91;5073742;28;20209;-77
2024/01/21 00:45:45;;;;;;;24.20;12.90;;;;;;;-4.95;100.00;99328.75;5073185;28;20212;-77
2024/01/21 00:48:12;;;;;;;24.63;12.77;;;;;;;-4.89;100.00;99327.97;5072897;28;20247;-77
2024/01/21 00:50:38;;;;;;;26.63;11.97;;;;;;;-4.94;100.00;99329.63;5074287;28;20530;-77
2024/01/21 00:53:05;;;;;;;23.70;12.23;;;;;;;-4.92;100.00;99335.66;5074265;28;20236;-77
2024/01/21 00:55:32;;;;;;;21.13;11.80;;;;;;;-4.92;100.00;99326.22;5074146;28;20212;-77
2024/01/21 00:57:59;;;;;;;22.57;12.07;;;;;;;-4.90;100.00;99333.97;5073419;28;20711;-77
2024/01/21 01:00:27;;;;;;;24.30;12.30;;;;;;;-4.91;100.00;99332.22;5073861;28;20207;-77
2024/01/21 01:02:53;;;;;;;26.10;12.50;;;;;;;-4.84;100.00;99331.47;5073826;28;20237;-77
2024/01/21 01:05:20;;;;;;;25.93;12.73;;;;;;;-4.85;100.00;99334.84;5073899;28;20307;-77
2024/01/21 01:07:46;;;;;;;21.00;12.83;;;;;;;-4.93;100.00;99336.50;5073494;28;20208;-78
2024/01/21 01:10:13;;;;;;;32.92;20.00;;;;;;;-4.99;100.00;99332.16;5072956;28;20797;-77
2024/01/21 01:12:42;;;;;;;28.27;14.33;;;;;;;-4.93;100.00;99326.19;5073981;28;20234;-77
2024/01/21 01:15:11;;;;;;;22.97;13.00;;;;;;;-4.96;100.00;99327.00;5073172;28;20216;-77
2024/01/21 01:17:37;;;;;;;22.23;12.07;;;;;;;-5.01;100.00;99313.22;5072956;28;20285;-77
2024/01/21 01:20:04;;;;;;;23.80;12.83;;;;;;;-5.10;100.00;99317.41;5073441;28;20218;-77
2024/01/21 01:22:31;;;;;;;22.80;13.20;;;;;;;-5.08;100.00;99315.72;5073410;28;20248;-77
2024/01/21 01:24:57;;;;;;;28.30;12.47;;;;;;;-5.10;100.00;99315.72;5073733;28;20229;-77
2024/01/21 01:27:24;;;;;;;24.43;12.10;;;;;;;-5.18;100.00;99324.19;5073078;28;20205;-77
2024/01/21 01:29:52;;;;;;;25.10;12.77;;;;;;;-5.25;100.00;99322.41;5073360;28;20246;-77
2024/01/21 01:32:19;;;;;;;25.47;13.33;;;;;;;-5.30;100.00;99329.22;5073129;28;20235;-77
2024/01/21 01:34:45;;;;;;;29.70;14.60;;;;;;;-5.25;100.00;99322.41;5073244;28;20212;-77
2024/01/21 01:37:13;;;;;;;25.63;12.50;;;;;;;-5.36;100.00;99317.13;5073042;28;20235;-77
2024/01/21 01:39:42;;;;;;;24.30;13.10;;;;;;;-5.42;100.00;99318.75;5072722;28;20592;-77
2024/01/21 01:42:08;;;;;;;24.83;12.07;;;;;;;-5.43;100.00;99309.31;5072889;28;20600;-77
2024/01/21 01:44:38;;;;;;;24.03;11.90;;;;;;;-5.42;100.00;99318.75;5072864;28;20216;-77
2024/01/21 01:47:06;;;;;;;26.27;13.63;;;;;;;-5.39;100.00;99318.78;5072344;28;20232;-77
2024/01/21 01:49:33;;;;;;;20.47;12.27;;;;;;;-5.44;100.00;99316.16;5073056;28;20208;-77
2024/01/21 01:52:33;;;;;;;25.90;13.10;;;;;;;-5.41;100.00;99305.03;5073104;28;20235;-77
2024/01/21 01:54:59;;;;;;;22.83;11.93;;;;;;;-5.41;100.00;99307.59;5065523;28;20207;-77
2024/01/21 01:57:26;;;;;;;23.03;11.70;;;;;;;-5.44;100.00;99300.69;5072174;28;20233;-77
2024/01/21 01:59:52;;;;;;;27.57;13.43;;;;;;;-5.42;100.00;99299.03;5071903;28;20211;-77
2024/01/21 02:02:24;;;;;;;21.13;13.03;;;;;;;-5.45;100.00;99298.13;5072416;28;20235;-77
2024/01/21 02:04:51;;;;;;;17.17;11.13;;;;;;;-5.46;100.00;99296.38;5072413;28;20207;-77
2024/01/21 02:07:17;;;;;;;23.30;13.17;;;;;;;-5.39;100.00;99298.16;5071930;28;20213;-77
2024/01/21 02:09:44;;;;;;;24.10;13.17;;;;;;;-5.36;100.00;99287.91;5072391;28;20205;-78
2024/01/21 02:12:10;;;;;;;23.03;12.53;;;;;;;-5.38;100.00;99281.91;5072285;28;20721;-77
2024/01/21 02:14:37;;;;;;;24.17;12.93;;;;;;;-5.55;100.00;99280.81;5072440;28;20207;-77
2024/01/21 02:17:04;;;;;;;20.73;11.73;;;;;;;-5.78;100.00;99271.94;5070739;28;20227;-77
2024/01/21 02:19:32;;;;;;;20.43;11.77;;;;;;;-5.95;100.00;99278.59;5071128;28;20273;-77
2024/01/21 02:21:59;;;;;;;23.13;11.43;;;;;;;-6.05;100.00;99271.63;5072032;28;20228;-77
2024/01/21 02:24:30;;;;;;;25.80;12.07;;;;;;;-6.06;100.00;99260.47;5072221;28;20597;-76
2024/01/21 02:26:56;;;;;;;19.53;10.80;;;;;;;-5.97;100.00;99254.56;5070941;28;20204;-77
2024/01/21 02:29:23;;;;;;;24.13;12.27;;;;;;;-6.04;100.00;99250.19;5071634;28;20204;-78
2024/01/21 02:31:50;;;;;;;22.03;12.00;;;;;;;-6.05;100.00;99245.91;5071794;28;20228;-77
2024/01/21 02:34:16;;;;;;;18.00;10.30;;;;;;;-6.10;100.00;99250.97;5071728;28;20208;-77
2024/01/21 02:36:43;;;;;;;17.33;9.97;;;;;;;-6.19;100.00;99257.69;5071115;28;20552;-77
2024/01/21 02:39:11;;;;;;;18.63;10.80;;;;;;;-6.21;100.00;99259.38;5071742;28;20254;-77
2024/01/21 02:41:39;;;;;;;18.23;9.83;;;;;;;-6.19;100.00;99262.84;5070513;28;20228;-77
2024/01/21 02:44:05;;;;;;;17.57;10.17;;;;;;;-6.22;100.00;99262.81;5071663;28;20207;-77
2024/01/21 02:46:32;;;;;;;12.87;8.33;;;;;;;-6.15;100.00;99257.78;5071081;28;20209;-77
2024/01/21 02:48:58;;;;;;;17.37;9.50;;;;;;;-6.13;100.00;99268.06;5071563;28;20209;-77
2024/01/21 02:51:25;;;;;;;16.53;9.40;;;;;;;-6.12;100.00;99269.81;5071785;28;20302;-77
2024/01/21 02:53:52;;;;;;;16.83;9.73;;;;;;;-6.06;100.00;99277.59;5071363;28;20207;-77
2024/01/21 02:56:22;;;;;;;15.20;9.63;;;;;;;-5.96;100.00;99269.16;5071039;28;20310;-77
2024/01/21 02:58:51;;;;;;;20.47;10.17;;;;;;;-5.94;100.00;99265.78;5071383;28;20235;-77
2024/01/21 03:01:17;;;;;;;16.63;9.93;;;;;;;-5.95;100.00;99258.03;5071461;28;20234;-77
2024/01/21 03:03:44;;;;;;;16.33;10.63;;;;;;;-5.95;100.00;99269.19;5071324;28;20305;-77
2024/01/21 03:06:10;;;;;;;13.57;8.80;;;;;;;-5.96;100.00;99257.19;5072467;28;20211;-77
2024/01/21 03:08:37;;;;;;;15.80;9.13;;;;;;;-5.96;100.00;99258.88;5067663;28;20195;-78
2024/01/21 03:11:04;;;;;;;17.40;9.07;;;;;;;-5.87;100.00;99253.88;5062246;28;20583;-77
2024/01/21 03:13:31;;;;;;;15.43;9.00;;;;;;;-5.97;100.00;99250.31;5066455;28;20204;-78
2024/01/21 03:16:00;;;;;;;15.70;8.40;;;;;;;-6.07;100.00;99255.28;5071175;28;20203;-77
2024/01/21 03:18:26;;;;;;;15.93;9.23;;;;;;;-6.09;100.00;99254.41;5071280;28;20647;-78
2024/01/21 03:20:53;;;;;;;15.97;9.43;;;;;;;-6.04;100.00;99245.91;5072124;28;20226;-78
2024/01/21 03:23:19;;;;;;;15.23;10.40;;;;;;;-6.02;100.00;99245.94;5071778;28;20212;-78
2024/01/21 03:25:46;;;;;;;16.33;9.47;;;;;;;-6.02;100.00;99245.94;5071309;28;20590;-78
2024/01/21 03:28:12;;;;;;;20.90;10.57;;;;;;;-6.05;100.00;99246.75;5070870;28;20226;-78
2024/01/21 03:30:39;;;;;;;17.43;9.63;;;;;;;-6.03;100.00;99247.66;5071034;28;20274;-77
2024/01/21 03:33:07;;;;;;;17.17;9.33;;;;;;;-5.96;100.00;99241.72;5070977;28;20603;-77
2024/01/21 03:35:34;;;;;;;16.30;9.50;;;;;;;-5.94;100.00;99252.03;5070984;28;20697;-77
2024/01/21 03:38:09;;;;;;;20.33;10.17;;;;;;;-5.92;100.00;99247.78;5073238;28;20717;-78
2024/01/21 03:40:43;;;;;;;17.03;9.60;;;;;;;-5.92;100.00;99248.63;5077662;28;20207;-78
2024/01/21 03:43:10;;;;;;;20.13;9.17;;;;;;;-5.96;100.00;99240.84;5077552;28;20280;-77
2024/01/21 03:45:43;;;;;;;16.47;8.87;;;;;;;-5.98;100.00;99238.25;5077814;28;20214;-79
2024/01/21 03:48:11;;;;;;;13.63;9.03;;;;;;;-6.08;100.00;99228.72;5076943;28;20207;-77
2024/01/21 03:50:39;;;;;;;15.10;9.10;;;;;;;-6.11;100.00;99220.09;5077624;28;20202;-77
2024/01/21 03:53:09;;;;;;;17.23;8.63;;;;;;;-6.10;100.00;99216.66;5077580;28;20228;-77
2024/01/21 03:55:38;;;;;;;16.97;9.67;;;;;;;-6.11;100.00;99215.78;5077450;28;20310;-77
2024/01/21 03:58:05;;;;;;;16.03;8.17;;;;;;;-6.12;100.00;99228.66;5077266;28;20231;-77
2024/01/21 04:00:32;;;;;;;15.70;8.47;;;;;;;-6.18;100.00;99221.69;5077495;28;20641;-77
2024/01/21 04:03:03;;;;;;;16.47;8.77;;;;;;;-6.17;100.00;99222.56;5077652;28;20248;-78
2024/01/21 04:05:31;;;;;;;14.77;9.57;;;;;;;-6.18;100.00;99231.16;5077393;28;20207;-77
2024/01/21 04:07:59;;;;;;;13.73;8.20;;;;;;;-6.15;100.00;99229.47;5076972;28;20570;-77
2024/01/21 04:10:32;;;;;;;13.37;8.73;;;;;;;-6.05;100.00;99231.31;5077362;28;20617;-77
2024/01/21 04:12:58;;;;;;;19.77;10.03;;;;;;;-6.03;100.00;99226.19;5077368;28;20722;-77
2024/01/21 04:15:25;;;;;;;19.10;8.93;;;;;;;-6.02;100.00;99215.03;5077430;28;20212;-78
2024/01/21 04:17:57;;;;;;;16.27;9.90;;;;;;;-6.03;100.00;99208.16;5077014;28;20258;-78
2024/01/21 04:20:26;;;;;;;15.50;9.13;;;;;;;-5.98;100.00;99196.22;5077481;28;20211;-77
2024/01/21 04:22:55;;;;;;;15.97;9.90;;;;;;;-5.95;100.00;99196.25;5076994;28;20239;-77
2024/01/21 04:25:21;;;;;;;16.67;9.20;;;;;;;-5.91;100.00;99195.47;5077528;28;20578;-77
2024/01/21 04:27:48;;;;;;;20.93;10.13;;;;;;;-5.81;100.00;99195.56;5076793;28;20200;-77
2024/01/21 04:30:21;;;;;;;17.63;11.00;;;;;;;-5.75;100.00;99194.78;5075801;28;20215;-77
2024/01/21 04:32:47;;;;;;;18.03;10.50;;;;;;;-5.75;100.00;99195.63;5077231;28;20254;-77
2024/01/21 04:35:14;;;;;;;18.63;10.37;;;;;;;-5.74;100.00;99188.78;5077048;28;20232;-77
2024/01/21 04:37:43;;;;;;;14.87;9.70;;;;;;;-5.73;100.00;99195.66;5076521;28;20258;-77
2024/01/21 04:40:12;;;;;;;17.37;9.80;;;;;;;-5.71;100.00;99191.38;5077220;28;20484;-77
2024/01/21 04:42:39;;;;;;;15.60;9.50;;;;;;;-5.70;100.00;99186.25;5077307;28;20226;-77
2024/01/21 04:45:52;;;;;;;15.93;9.50;;;;;;;-5.66;100.00;99189.72;5077060;28;20203;-77
2024/01/21 04:48:19;;;;;;;16.27;8.47;;;;;;;-5.64;100.00;99185.44;5039026;28;20208;-78
2024/01/21 04:50:45;;;;;;;15.17;8.57;;;;;;;-5.66;100.00;99180.28;5073193;28;20218;-77
2024/01/21 04:53:12;;;;;;;16.20;9.27;;;;;;;-5.60;100.00;99179.47;5073760;28;20246;-77
2024/01/21 04:55:40;;;;;;;16.13;9.50;;;;;;;-5.56;100.00;99178.66;5073788;28;20203;-77
2024/01/21 04:58:09;;;;;;;14.10;8.53;;;;;;;-5.54;100.00;99185.56;5073145;28;20338;-77
2024/01/21 05:00:39;;;;;;;15.03;9.00;;;;;;;-5.56;100.00;99187.25;5074132;28;20205;-79
2024/01/21 05:03:10;;;;;;;14.80;9.53;;;;;;;-5.57;100.00;99185.53;5073694;28;20231;-78
2024/01/21 05:05:36;;;;;;;13.33;8.47;;;;;;;-5.56;100.00;99188.97;5073723;28;20632;-79
2024/01/21 05:08:03;;;;;;;16.53;8.83;;;;;;;-5.54;100.00;99184.69;5073097;28;20226;-78
2024/01/21 05:10:29;;;;;;;17.17;9.13;;;;;;;-5.46;100.00;99198.50;5073527;28;20203;-77
2024/01/21 05:12:57;;;;;;;13.03;8.47;;;;;;;-5.43;100.00;99189.09;5073449;28;20227;-77
2024/01/21 05:15:23;;;;;;;15.80;8.60;;;;;;;-5.46;100.00;99198.50;5073615;28;20207;-77
2024/01/21 05:17:50;;;;;;;13.73;7.53;;;;;;;-5.49;100.00;99189.03;5073269;28;20239;-79
2024/01/21 05:20:16;;;;;;;11.03;7.50;;;;;;;-5.50;100.00;99186.47;5073495;28;20674;-76
2024/01/21 05:22:43;;;;;;;15.60;8.70;;;;;;;-5.47;100.00;99209.66;5073557;28;20600;-78
2024/01/21 05:25:09;;;;;;;15.23;8.20;;;;;;;-5.37;100.00;99221.78;5073678;28;20229;-77
2024/01/21 05:27:36;;;;;;;14.33;8.67;;;;;;;-5.21;100.00;99231.38;5073315;28;20208;-77
2024/01/21 05:30:04;;;;;;;12.60;8.00;;;;;;;-5.28;100.00;99234.75;5073350;28;20569;-79
2024/01/21 05:32:31;;;;;;;12.23;7.90;;;;;;;-5.31;100.00;99234.75;5073544;28;20750;-77
2024/01/21 05:34:57;;;;;;;15.30;9.20;;;;;;;-5.28;100.00;99230.47;5073499;28;20232;-77
2024/01/21 05:37:24;;;;;;;14.80;8.40;;;;;;;-5.26;100.00;99235.66;5073031;28;20208;-78
2024/01/21 05:39:50;;;;;;;13.30;7.73;;;;;;;-5.28;100.00;99235.63;5073154;28;20218;-77
2024/01/21 05:42:17;;;;;;;20.23;8.87;;;;;;;-5.27;100.00;99242.50;5072757;28;20231;-77
2024/01/21 05:44:43;;;;;;;16.33;8.63;;;;;;;-5.23;100.00;99227.94;5072988;28;20235;-78
2024/01/21 05:47:11;;;;;;;14.37;8.40;;;;;;;-5.23;100.00;99227.94;5072315;28;20240;-77
2024/01/21 05:49:37;;;;;;;16.67;8.07;;;;;;;-5.12;100.00;99236.66;5072910;28;20205;-77
2024/01/21 05:52:10;;;;;;;14.73;8.40;;;;;;;-5.14;100.00;99230.63;5072677;28;20223;-77
2024/01/21 05:54:36;;;;;;;14.97;8.30;;;;;;;-5.15;100.00;99246.91;5072517;28;20214;-77
2024/01/21 05:57:03;;;;;;;14.60;7.97;;;;;;;-5.16;100.00;99246.06;5072259;28;20211;-77
2024/01/21 05:59:30;;;;;;;14.77;8.77;;;;;;;-5.15;100.00;99241.75;5072536;28;20672;-77
2024/01/21 06:01:56;;;;;;;13.37;7.73;;;;;;;-5.22;100.00;99250.28;5071647;28;20226;-78
2024/01/21 06:04:24;;;;;;;13.97;8.43;;;;;;;-5.25;100.00;99251.09;5073032;28;20234;-78
2024/01/21 06:06:51;;;;;;;16.10;8.80;;;;;;;-5.25;100.00;99268.28;5072944;28;20261;-78
2024/01/21 06:09:17;;;;;;;11.97;8.10;;;;;;;-5.22;100.00;99265.72;5073657;28;20217;-77
2024/01/21 06:11:44;;;;;;;14.10;8.37;;;;;;;-5.20;100.00;99270.06;5074592;28;20719;-78
2024/01/21 06:14:11;;;;;;;13.07;8.20;;;;;;;-5.21;100.00;99272.63;5074953;28;20259;-78
2024/01/21 06:16:38;;;;;;;12.93;8.10;;;;;;;-5.26;100.00;99266.56;5072338;28;20207;-78
2024/01/21 06:19:05;;;;;;;14.37;8.00;;;;;;;-5.28;100.00;99265.66;5072461;28;20606;-78
2024/01/21 06:21:33;;;;;;;14.60;8.67;;;;;;;-5.35;100.00;99263.88;5071965;28;20230;-77
2024/01/21 06:24:00;;;;;;;13.03;8.93;;;;;;;-5.38;100.00;99263.88;5072364;28;20213;-77
2024/01/21 06:26:26;;;;;;;15.23;8.90;;;;;;;-5.42;100.00;99251.78;5071763;28;20590;-78
2024/01/21 06:28:53;;;;;;;11.70;8.40;;;;;;;-5.37;100.00;99257.84;5072057;28;20214;-77
2024/01/21 06:31:20;;;;;;;12.57;8.33;;;;;;;-5.47;100.00;99251.75;5071945;28;20239;-77
2024/01/21 06:33:47;;;;;;;15.73;8.60;;;;;;;-5.46;100.00;99257.75;5071572;28;20672;-77
2024/01/21 06:36:17;;;;;;;15.00;8.10;;;;;;;-5.60;100.00;99256.72;5071166;28;20211;-77
2024/01/21 06:38:45;;;;;;;17.17;8.67;;;;;;;-5.70;100.00;99248.03;5071890;28;20227;-77
2024/01/21 06:41:11;;;;;;;15.50;8.93;;;;;;;-5.78;100.00;99256.50;5072201;28;20329;-78
2024/01/21 06:43:41;;;;;;;15.83;9.43;;;;;;;-5.80;100.00;99247.94;5071993;28;20211;-77
2024/01/21 06:46:08;;;;;;;15.40;8.73;;;;;;;-5.83;100.00;99253.03;5071173;28;20219;-77
2024/01/21 06:48:34;;;;;;;16.20;9.43;;;;;;;-5.88;100.00;99254.69;5071477;28;20207;-77
2024/01/21 06:51:31;;;;;;;18.10;9.17;;;;;;;-5.95;100.00;99253.75;5071372;28;20627;-77
2024/01/21 06:53:59;;;;;;;14.83;9.40;;;;;;;-5.99;100.00;99253.69;5071206;28;20203;-77
2024/01/21 06:56:27;;;;;;;16.50;9.17;;;;;;;-5.93;100.00;99261.50;5071057;28;20662;-79
2024/01/21 06:58:59;;;;;;;18.10;9.93;;;;;;;-5.93;100.00;99261.50;5071503;28;20308;-77
2024/01/21 07:01:25;;;;;;;17.43;10.07;;;;;;;-5.93;100.00;99256.34;5071414;28;20227;-78
2024/01/21 07:03:52;;;;;;;16.13;9.27;;;;;;;-5.96;100.00;99252.03;5071447;28;20689;-78
2024/01/21 07:06:52;;;;;;;14.30;9.10;;;;;;;-5.93;100.00;99256.34;5071084;28;20208;-77
2024/01/21 07:09:24;;;;;;;16.30;9.77;;;;;;;-5.90;100.00;99254.69;5040027;28;20633;-76
2024/01/21 07:11:52;;;;;;;18.63;10.27;;;;;;;-5.86;100.00;99247.88;5071484;28;20273;-79
2024/01/21 07:14:21;;;;;;;17.43;9.63;;;;;;;-5.83;100.00;99247.88;5071166;28;20535;-76
2024/01/21 07:16:49;;;;;;;15.07;9.73;;;;;;;-5.81;100.00;99256.50;5071137;28;20207;-78
2024/01/21 07:19:17;;;;;;;15.73;9.63;;;;;;;-5.76;100.00;99259.94;5071237;28;20232;-77
2024/01/21 07:21:46;;;;;;;18.37;10.17;;;;;;;-5.69;100.00;99256.63;5071079;28;20571;-77
2024/01/21 07:24:18;;;;;;;21.77;10.13;;;;;;;-5.67;100.00;99254.94;5071085;28;20218;-77
2024/01/21 07:26:46;;;;;;;17.33;9.40;;;;;;;-5.57;100.00;99261.94;5070737;28;20214;-77
2024/01/21 07:29:14;;;;;;;16.90;9.73;;;;;;;-5.55;100.00;99266.22;5071177;28;20228;-77
2024/01/21 07:31:45;;;;;;;15.00;9.27;;;;;;;-5.50;100.00;99276.59;5071367;28;20219;-78
2024/01/21 07:34:12;;;;;;;14.93;8.83;;;;;;;-5.43;100.00;99268.09;5070881;28;20211;-77
2024/01/21 07:36:39;;;;;;;13.97;9.53;;;;;;;-5.34;100.00;99270.75;5071655;28;20613;-78
2024/01/21 07:39:13;;;;;;;12.10;8.23;;;;;;;-5.31;100.00;99266.50;5071235;28;20229;-77
2024/01/21 07:41:40;;;;;;;12.63;8.03;;;;;;;-5.28;100.00;99275.97;5070973;28;20258;-76
2024/01/21 07:44:07;;;;;;;12.93;8.60;;;;;;;-5.19;100.00;99270.94;5071675;28;20214;-78
2024/01/21 07:46:34;;;;;;;16.80;9.27;;;;;;;-5.12;100.00;99272.72;5070494;28;20594;-77
2024/01/21 07:49:00;;;;;;;15.33;7.57;;;;;;;-5.01;100.00;99281.44;5070987;28;20226;-77
2024/01/21 07:51:45;;;;;;;12.60;8.80;;;;;;;-4.91;100.00;99272.91;5070965;28;20227;-76
2024/01/21 07:57:27;;;;;;;14.60;8.80;;;;;;;-4.51;100.00;99254.38;5054353;28;20214;-76
2024/01/21 07:59:55;;;;;;;12.13;8.30;;;;;;;-4.42;100.00;99257.00;5071070;28;20240;-76
2024/01/21 08:02:26;;;;;;;14.57;8.13;;;;;;;-4.33;100.00;99254.50;5070956;28;20239;-76
2024/01/21 08:04:53;;;;;;;16.53;8.17;;;;;;;-4.25;100.00;99245.09;5070823;28;20215;-77
2024/01/21 08:07:19;;;;;;;16.43;9.30;;;;;;;-4.12;100.00;99252.94;5070613;28;20210;-78
2024/01/21 08:09:48;;;;;;;11.93;7.20;;;;;;;-4.03;100.00;99257.28;5070912;28;20683;-79
2024/01/21 08:12:15;;;;;;;13.07;8.90;;;;;;;-3.97;100.00;99265.06;5070564;28;20230;-77
2024/01/21 08:14:41;;;;;;;12.73;8.33;;;;;;;-3.91;100.00;99262.53;5070273;28;20210;-77
2024/01/21 08:17:09;;;;;;;13.23;8.30;;;;;;;-3.79;100.00;99260.00;5069581;28;20211;-77
2024/01/21 08:19:45;;;;;;;13.03;8.47;;;;;;;-3.69;100.00;99256.59;5071678;28;20228;-77
2024/01/21 08:22:12;;;;;;;12.83;8.33;;;;;;;-3.55;100.00;99263.53;5072123;28;20300;-77
2024/01/21 08:24:39;;;;;;;14.23;8.03;;;;;;;-3.39;100.00;99264.47;5072114;28;20266;-78
2024/01/21 08:27:06;;;;;;;12.60;7.77;;;;;;;-3.28;100.00;99270.53;5075981;28;20590;-77
2024/01/21 08:29:33;;;;;;;14.13;7.80;;;;;;;-3.22;100.00;99280.91;5076365;28;20208;-77
2024/01/21 08:32:17;;;;;;;14.23;8.17;;;;;;;-3.11;100.00;99279.22;5076438;28;20234;-77
2024/01/21 08:34:45;;;;;;;13.63;7.73;;;;;;;-3.03;100.00;99282.66;5076785;28;20239;-76
2024/01/21 08:37:25;;;;;;;14.70;7.97;;;;;;;-2.97;100.00;99272.34;5073880;28;20212;-77
2024/01/21 08:39:54;;;;;;;13.97;8.07;;;;;;;-2.94;100.00;99264.59;5074638;28;20233;-78
2024/01/21 08:42:23;;;;;;;12.00;7.60;;;;;;;-2.95;100.00;99268.91;5074553;28;20233;-77
2024/01/21 08:44:50;;;;;;;11.93;8.10;;;;;;;-2.94;100.00;99262.03;5074938;28;20233;-78
2024/01/21 08:47:17;;;;;;;12.80;7.60;;;;;;;-2.85;100.00;99262.00;5073573;28;20303;-77
2024/01/21 08:49:46;;;;;;;12.10;7.60;;;;;;;-2.68;100.00;99249.97;5074752;28;20207;-77
2024/01/21 08:52:12;;;;;;;11.50;8.10;;;;;;;-2.58;100.00;99246.53;5073784;28;20230;-77
2024/01/21 08:54:39;;;;;;;12.53;7.70;;;;;;;-2.57;100.00;99253.44;5074411;28;20217;-77
2024/01/21 08:57:06;;;;;;;15.40;9.77;;;;;;;-2.57;100.00;99253.44;5071627;28;20500;-77
2024/01/21 08:59:32;;;;;;;13.37;8.67;;;;;;;-2.51;100.00;99245.66;5072410;28;20260;-77
2024/01/21 09:01:59;;;;;;;12.20;7.87;;;;;;;-2.43;100.00;99241.34;5071526;28;20230;-76
2024/01/21 09:04:25;;;;;;;13.10;8.23;;;;;;;-2.47;100.00;99256.00;5073035;28;20225;-77
2024/01/21 09:06:53;;;;;;;11.50;7.67;;;;;;;-2.48;100.00;99263.75;5072086;28;20579;-77
2024/01/21 09:09:20;;;;;;;11.57;7.93;;;;;;;-2.44;100.00;99271.53;5073811;28;20210;-79
2024/01/21 09:11:47;;;;;;;11.77;7.03;;;;;;;-2.34;100.00;99272.41;5073872;28;20724;-78
2024/01/21 09:14:13;;;;;;;11.20;7.20;;;;;;;-2.35;100.00;99260.31;5073938;28;20244;-79
2024/01/21 09:16:41;;;;;;;14.50;7.03;;;;;;;-2.28;100.00;99268.06;5072985;28;20209;-78
2024/01/21 09:19:07;;;;;;;9.90;6.57;;;;;;;-2.27;100.00;99274.13;5073363;28;20236;-77
2024/01/21 09:21:36;;;;;;;11.57;7.13;;;;;;;-2.21;100.00;99272.38;5073840;28;20231;-79
2024/01/21 09:24:07;;;;;;;10.70;7.03;;;;;;;-2.12;100.00;99279.28;5073363;28;20229;-77
2024/01/21 09:26:34;;;;;;;13.03;7.43;;;;;;;-2.06;100.00;99268.91;5072890;28;20313;-78
2024/01/21 09:29:01;;;;;;;12.57;7.63;;;;;;;-2.07;100.00;99267.19;5073440;28;20208;-79
2024/01/21 09:31:27;;;;;;;12.50;7.27;;;;;;;-1.96;100.00;99255.09;5073205;28;20241;-77
2024/01/21 09:33:56;;;;;;;13.30;7.53;;;;;;;-1.85;100.00;99258.53;5073717;28;20234;-78
2024/01/21 09:36:23;;;;;;;9.87;6.53;;;;;;;-1.85;100.00;99250.75;5072778;28;20215;-78
2024/01/21 09:38:50;;;;;;;11.30;7.00;;;;;;;-1.82;100.00;99249.00;5073848;28;20212;-77
2024/01/21 09:41:26;;;;;;;12.17;7.27;;;;;;;-1.77;100.00;99246.41;5073012;28;20231;-77
2024/01/21 09:43:52;;;;;;;16.05;10.20;;;;;;;-1.69;100.00;99255.88;5072808;28;20923;-77
2024/01/21 09:46:19;;;;;;;12.23;7.63;;;;;;;-1.67;100.00;99271.44;5072550;28;20269;-77
2024/01/21 09:48:46;;;;;;;13.43;7.63;;;;;;;-1.50;100.00;99261.84;5073163;28;20313;-77
2024/01/21 09:51:13;;;;;;;13.27;9.65;;;;;;;-1.51;100.00;99275.69;5072619;28;20441;-77
2024/01/21 09:53:39;;;;;;;11.07;7.67;;;;;;;-1.37;100.00;99284.25;5073148;28;20213;-78
2024/01/21 09:56:08;;;;;;;13.20;7.43;;;;;;;-1.37;100.00;99292.03;5072045;28;20210;-77
2024/01/21 09:58:44;;;;;;;12.93;8.17;;;;;;;-1.20;100.00;99287.66;5073100;28;20696;-77
2024/01/21 10:01:11;;;;;;;12.63;8.80;;;;;;;-1.15;100.00;99285.91;5074017;28;20434;-78
2024/01/21 10:03:39;;;;;;;11.83;7.50;;;;;;;-1.09;100.00;99285.88;5073299;28;20688;-77
2024/01/21 10:06:05;;;;;;;10.67;6.60;;;;;;;-0.98;100.00;99278.91;5071729;28;20219;-78
2024/01/21 10:08:32;;;;;;;13.97;8.03;;;;;;;-0.95;100.00;99284.06;5072483;28;20669;-78
2024/01/21 10:11:02;;;;;;;9.33;6.80;;;;;;;-0.91;100.00;99280.59;5072397;28;20206;-76
2024/01/21 10:13:29;;;;;;;11.13;7.17;;;;;;;-0.81;100.00;99271.88;5072719;28;20207;-79
2024/01/21 10:15:57;;;;;;;11.40;7.27;;;;;;;-0.71;100.00;99268.34;5072201;28;20219;-79
2024/01/21 10:18:24;;;;;;;11.50;7.13;;;;;;;-0.61;100.00;99259.63;5071766;28;20677;-77
2024/01/21 10:20:51;;;;;;;12.77;7.90;;;;;;;-0.55;100.00;99264.75;5072214;28;20227;-78
2024/01/21 10:23:18;;;;;;;10.63;7.13;;;;;;;-0.54;100.00;99271.69;5072145;28;20208;-77
2024/01/21 10:25:47;;;;;;;9.93;7.20;;;;;;;-0.36;100.00;99281.94;5072542;28;20720;-77
2024/01/21 10:28:14;;;;;;;10.63;7.03;;;;;;;-0.40;100.00;99282.81;5071960;28;20208;-77
2024/01/21 10:30:42;;;;;;;11.50;7.53;;;;;;;-0.35;100.00;99275.84;5072330;28;20259;-77
2024/01/21 10:33:10;;;;;;;10.40;7.30;;;;;;;-0.10;100.00;99242.72;5072373;28;20224;-77
2024/01/21 10:35:37;;;;;;;10.63;7.40;;;;;;;0.08;100.00;99213.94;5072329;28;20211;-77
2024/01/21 10:38:17;;;;;;;10.27;7.10;;;;;;;0.11;100.00;99239.91;5071673;28;20214;-77
2024/01/21 10:40:44;;;;;;;9.10;6.97;;;;;;;0.01;100.00;99261.66;5072890;28;20236;-77
2024/01/21 10:43:13;;;;;;;11.07;7.03;;;;;;;0.21;100.00;99257.16;5071669;28;20281;-77
2024/01/21 10:45:42;;;;;;;11.97;7.47;;;;;;;0.19;100.00;99263.22;5071420;28;20696;-77
2024/01/21 10:48:13;;;;;;;11.37;7.40;;;;;;;0.24;100.00;99257.09;5070155;28;20214;-78
2024/01/21 10:50:42;;;;;;;11.30;7.37;;;;;;;0.38;100.00;99259.56;5072077;28;20203;-78
2024/01/21 10:53:11;;;;;;;12.37;7.67;;;;;;;0.44;100.00;99252.53;5072077;28;20235;-78
2024/01/21 10:55:42;;;;;;;11.20;7.50;;;;;;;0.56;100.00;99260.19;5071528;28;20243;-76
2024/01/21 10:58:09;;;;;;;11.00;7.23;;;;;;;0.66;100.00;99241.00;5070902;28;20208;-77
2024/01/21 11:00:39;;;;;;;10.90;7.60;;;;;;;0.88;100.00;99233.78;5071568;28;20234;-77
2024/01/21 11:03:25;;;;;;;10.90;7.17;;;;;;;0.86;100.00;99235.53;5071297;28;20329;-78
2024/01/21 11:06:00;;;;;;;11.20;7.37;;;;;;;0.97;100.00;99231.91;5071459;28;20207;-76
2024/01/21 11:08:27;;;;;;;9.13;6.43;;;;;;;1.07;99.39;99230.91;5070982;28;20214;-77
2024/01/21 11:11:14;;;;;;;9.67;6.67;;;;;;;1.10;98.51;99241.25;5071139;28;20214;-77
2024/01/21 11:13:45;;;;;;;11.53;7.37;;;;;;;1.16;98.33;99264.59;5071849;28;20250;-78
2024/01/21 11:16:14;;;;;;;10.83;6.90;;;;;;;1.21;97.10;99268.00;5072255;28;20209;-78
2024/01/21 11:18:44;;;;;;;12.10;7.23;;;;;;;1.29;96.03;99281.78;5072171;28;20250;-79
2024/01/21 11:21:14;;;;;;;10.90;7.20;;;;;;;1.29;95.95;99262.69;5071381;28;20231;-78
2024/01/21 11:23:40;;;;;;;11.40;6.53;;;;;;;1.39;95.78;99262.53;5072321;28;20265;-78
2024/01/21 11:26:07;;;;;;;10.47;6.63;;;;;;;1.42;95.24;99275.50;5071220;28;20207;-77